sensor_id;sensor_type;location;lat;lon;timestamp;temperature;humidity
4207;DHT22;2117;47.972;7.830;2023-08-20T01:01:03;21.60;99.90
4207;DHT22;2117;47.972;7.830;2023-08-20T01:03:29;21.60;99.90
4207;DHT22;2117;47.972;7.830;2023-08-20T01:06:23;21.60;99.90
4207;DHT22;2117;47.972;7.830;2023-08-20T01:09:06;21.60;99.90
4207;DHT22;2117;47.972;7.830;2023-08-20T01:11:37;21.50;99.90
4207;DHT22;2117;47.972;7.830;2023-08-20T01:14:14;21.50;99.90
4207;DHT22;2117;47.972;7.830;2023-08-20T01:16:40;21.50;99.90
4207;DHT22;2117;47.972;7.830;2023-08-20T01:19:07;21.60;99.90
4207;DHT22;2117;47.972;7.830;2023-08-20T01:21:39;21.50;99.90
4207;DHT22;2117;47.972;7.830;2023-08-20T01:24:38;21.40;99.90
4207;DHT22;2117;47.972;7.830;2023-08-20T01:30:00;21.30;99.90
4207;DHT22;2117;47.972;7.830;2023-08-20T01:32:27;21.40;99.90
4207;DHT22;2117;47.972;7.830;2023-08-20T01:34:53;21.30;99.90
4207;DHT22;2117;47.972;7.830;2023-08-20T01:37:19;21.30;99.90
4207;DHT22;2117;47.972;7.830;2023-08-20T01:39:45;21.20;99.90
4207;DHT22;2117;47.972;7.830;2023-08-20T01:42:10;21.30;99.90
4207;DHT22;2117;47.972;7.830;2023-08-20T01:44:36;21.30;99.90
4207;DHT22;2117;47.972;7.830;2023-08-20T01:47:02;21.30;99.90
4207;DHT22;2117;47.972;7.830;2023-08-20T01:49:28;21.20;99.90
4207;DHT22;2117;47.972;7.830;2023-08-20T01:51:54;21.20;99.90
4207;DHT22;2117;47.972;7.830;2023-08-20T01:54:19;21.20;99.90
4207;DHT22;2117;47.972;7.830;2023-08-20T01:56:45;21.10;99.90
4207;DHT22;2117;47.972;7.830;2023-08-20T01:59:10;21.10;99.90
4207;DHT22;2117;47.972;7.830;2023-08-20T02:01:36;21.00;99.90
4207;DHT22;2117;47.972;7.830;2023-08-20T02:04:01;21.10;99.90
4207;DHT22;2117;47.972;7.830;2023-08-20T02:06:27;21.10;99.90
4207;DHT22;2117;47.972;7.830;2023-08-20T02:08:53;21.10;99.90
4207;DHT22;2117;47.972;7.830;2023-08-20T02:11:18;21.10;99.90
4207;DHT22;2117;47.972;7.830;2023-08-20T02:13:44;21.10;99.90
4207;DHT22;2117;47.972;7.830;2023-08-20T02:16:09;21.10;99.90
4207;DHT22;2117;47.972;7.830;2023-08-20T02:18:35;21.10;99.90
4207;DHT22;2117;47.972;7.830;2023-08-20T02:21:01;21.00;99.90
4207;DHT22;2117;47.972;7.830;2023-08-20T02:23:26;21.00;99.90
4207;DHT22;2117;47.972;7.830;2023-08-20T02:25:52;21.00;99.90
4207;DHT22;2117;47.972;7.830;2023-08-20T02:28:17;21.00;99.90
4207;DHT22;2117;47.972;7.830;2023-08-20T02:30:44;21.00;99.90
4207;DHT22;2117;47.972;7.830;2023-08-20T02:33:10;21.00;99.90
4207;DHT22;2117;47.972;7.830;2023-08-20T02:35:37;21.00;99.90
4207;DHT22;2117;47.972;7.830;2023-08-20T02:38:02;21.00;99.90
4207;DHT22;2117;47.972;7.830;2023-08-20T02:40:28;21.00;99.90
4207;DHT22;2117;47.972;7.830;2023-08-20T02:42:53;21.00;99.90
4207;DHT22;2117;47.972;7.830;2023-08-20T02:45:19;21.00;99.90
4207;DHT22;2117;47.972;7.830;2023-08-20T02:47:44;21.10;99.90
4207;DHT22;2117;47.972;7.830;2023-08-20T02:50:10;21.10;99.90
4207;DHT22;2117;47.972;7.830;2023-08-20T02:52:36;21.10;99.90
4207;DHT22;2117;47.972;7.830;2023-08-20T02:55:01;21.10;99.90
4207;DHT22;2117;47.972;7.830;2023-08-20T02:57:28;21.10;99.90
4207;DHT22;2117;47.972;7.830;2023-08-20T02:59:54;21.00;99.90
4207;DHT22;2117;47.972;7.830;2023-08-20T03:02:19;21.00;99.90
4207;DHT22;2117;47.972;7.830;2023-08-20T03:04:45;21.00;99.90
4207;DHT22;2117;47.972;7.830;2023-08-20T03:07:10;21.00;99.90
4207;DHT22;2117;47.972;7.830;2023-08-20T03:09:36;21.00;99.90
4207;DHT22;2117;47.972;7.830;2023-08-20T03:12:01;21.00;99.90
4207;DHT22;2117;47.972;7.830;2023-08-20T03:14:27;21.00;99.90
4207;DHT22;2117;47.972;7.830;2023-08-20T03:16:53;21.00;99.90
4207;DHT22;2117;47.972;7.830;2023-08-20T03:19:18;21.00;99.90
4207;DHT22;2117;47.972;7.830;2023-08-20T03:21:44;21.00;99.90
4207;DHT22;2117;47.972;7.830;2023-08-20T03:24:09;21.00;99.90
4207;DHT22;2117;47.972;7.830;2023-08-20T03:26:35;21.00;99.90
4207;DHT22;2117;47.972;7.830;2023-08-20T03:29:00;20.90;99.90
4207;DHT22;2117;47.972;7.830;2023-08-20T03:31:26;20.80;99.90
4207;DHT22;2117;47.972;7.830;2023-08-20T03:33:51;20.80;99.90
4207;DHT22;2117;47.972;7.830;2023-08-20T03:36:17;20.80;99.90
4207;DHT22;2117;47.972;7.830;2023-08-20T03:38:42;20.90;99.90
4207;DHT22;2117;47.972;7.830;2023-08-20T03:41:08;20.80;99.90
4207;DHT22;2117;47.972;7.830;2023-08-20T03:43:33;20.70;99.90
4207;DHT22;2117;47.972;7.830;2023-08-20T03:45:59;20.70;99.90
4207;DHT22;2117;47.972;7.830;2023-08-20T03:48:24;20.70;99.90
4207;DHT22;2117;47.972;7.830;2023-08-20T03:50:50;20.80;99.90
4207;DHT22;2117;47.972;7.830;2023-08-20T03:53:15;20.80;99.90
4207;DHT22;2117;47.972;7.830;2023-08-20T03:55:41;20.80;99.90
4207;DHT22;2117;47.972;7.830;2023-08-20T03:58:07;20.80;99.90
4207;DHT22;2117;47.972;7.830;2023-08-20T04:00:35;20.80;99.90
4207;DHT22;2117;47.972;7.830;2023-08-20T04:03:01;20.80;99.90
4207;DHT22;2117;47.972;7.830;2023-08-20T04:05:27;20.80;99.90
4207;DHT22;2117;47.972;7.830;2023-08-20T04:07:52;20.80;99.90
4207;DHT22;2117;47.972;7.830;2023-08-20T04:10:18;20.80;99.90
4207;DHT22;2117;47.972;7.830;2023-08-20T04:12:43;20.80;99.90
4207;DHT22;2117;47.972;7.830;2023-08-20T04:15:09;20.80;99.90
4207;DHT22;2117;47.972;7.830;2023-08-20T04:17:35;20.80;99.90
4207;DHT22;2117;47.972;7.830;2023-08-20T04:20:00;20.90;99.90
4207;DHT22;2117;47.972;7.830;2023-08-20T04:22:26;20.90;99.90
4207;DHT22;2117;47.972;7.830;2023-08-20T04:24:52;20.90;99.90
4207;DHT22;2117;47.972;7.830;2023-08-20T04:27:18;20.90;99.90
4207;DHT22;2117;47.972;7.830;2023-08-20T04:29:43;20.90;99.90
4207;DHT22;2117;47.972;7.830;2023-08-20T04:32:09;20.90;99.90
4207;DHT22;2117;47.972;7.830;2023-08-20T04:34:34;20.90;99.90
4207;DHT22;2117;47.972;7.830;2023-08-20T04:37:00;20.90;99.90
4207;DHT22;2117;47.972;7.830;2023-08-20T04:39:25;21.00;99.90
4207;DHT22;2117;47.972;7.830;2023-08-20T04:41:51;21.00;99.90
4207;DHT22;2117;47.972;7.830;2023-08-20T04:44:16;21.00;99.90
4207;DHT22;2117;47.972;7.830;2023-08-20T04:46:42;21.00;99.90
4207;DHT22;2117;47.972;7.830;2023-08-20T04:49:08;21.10;99.90
4207;DHT22;2117;47.972;7.830;2023-08-20T04:51:34;21.00;99.90
4207;DHT22;2117;47.972;7.830;2023-08-20T04:53:59;21.00;99.90
4207;DHT22;2117;47.972;7.830;2023-08-20T04:56:25;21.00;99.90
4207;DHT22;2117;47.972;7.830;2023-08-20T04:58:50;21.10;99.90
4207;DHT22;2117;47.972;7.830;2023-08-20T05:01:16;21.00;99.90
4207;DHT22;2117;47.972;7.830;2023-08-20T05:03:41;21.00;99.90
4207;DHT22;2117;47.972;7.830;2023-08-20T05:06:07;21.00;99.90
4207;DHT22;2117;47.972;7.830;2023-08-20T05:08:32;21.00;99.90
4207;DHT22;2117;47.972;7.830;2023-08-20T05:10:58;20.90;99.90
4207;DHT22;2117;47.972;7.830;2023-08-20T05:13:23;20.90;99.90
4207;DHT22;2117;47.972;7.830;2023-08-20T05:15:49;21.00;99.90
4207;DHT22;2117;47.972;7.830;2023-08-20T05:18:15;21.00;99.90
4207;DHT22;2117;47.972;7.830;2023-08-20T05:20:40;21.00;99.90
4207;DHT22;2117;47.972;7.830;2023-08-20T05:23:06;21.00;99.90
4207;DHT22;2117;47.972;7.830;2023-08-20T05:25:32;21.00;99.90
4207;DHT22;2117;47.972;7.830;2023-08-20T05:27:57;21.10;99.90
4207;DHT22;2117;47.972;7.830;2023-08-20T05:30:23;21.10;99.90
4207;DHT22;2117;47.972;7.830;2023-08-20T05:32:49;21.10;99.90
4207;DHT22;2117;47.972;7.830;2023-08-20T05:35:14;21.10;99.90
4207;DHT22;2117;47.972;7.830;2023-08-20T05:37:40;21.10;99.90
4207;DHT22;2117;47.972;7.830;2023-08-20T05:40:06;21.30;99.90
4207;DHT22;2117;47.972;7.830;2023-08-20T05:42:34;21.40;99.90
4207;DHT22;2117;47.972;7.830;2023-08-20T05:44:59;21.70;99.90
4207;DHT22;2117;47.972;7.830;2023-08-20T05:47:25;21.70;99.90
4207;DHT22;2117;47.972;7.830;2023-08-20T05:49:50;21.70;99.90
4207;DHT22;2117;47.972;7.830;2023-08-20T05:52:16;21.70;99.90
4207;DHT22;2117;47.972;7.830;2023-08-20T05:54:41;21.80;99.90
4207;DHT22;2117;47.972;7.830;2023-08-20T05:57:07;22.00;99.90
4207;DHT22;2117;47.972;7.830;2023-08-20T05:59:33;22.20;99.90
4207;DHT22;2117;47.972;7.830;2023-08-20T06:02:00;22.40;99.90
4207;DHT22;2117;47.972;7.830;2023-08-20T06:04:26;22.40;99.90
4207;DHT22;2117;47.972;7.830;2023-08-20T06:06:51;22.40;99.90
4207;DHT22;2117;47.972;7.830;2023-08-20T06:09:17;22.40;99.90
4207;DHT22;2117;47.972;7.830;2023-08-20T06:11:42;22.30;99.90
4207;DHT22;2117;47.972;7.830;2023-08-20T06:14:08;22.40;99.90
4207;DHT22;2117;47.972;7.830;2023-08-20T06:16:34;22.50;99.90
4207;DHT22;2117;47.972;7.830;2023-08-20T06:18:59;22.50;99.90
4207;DHT22;2117;47.972;7.830;2023-08-20T06:21:25;22.70;99.90
4207;DHT22;2117;47.972;7.830;2023-08-20T06:23:50;22.70;99.90
4207;DHT22;2117;47.972;7.830;2023-08-20T06:26:16;22.80;99.90
4207;DHT22;2117;47.972;7.830;2023-08-20T06:28:41;22.80;99.90
4207;DHT22;2117;47.972;7.830;2023-08-20T06:31:07;22.90;99.90
4207;DHT22;2117;47.972;7.830;2023-08-20T06:33:32;22.90;99.90
4207;DHT22;2117;47.972;7.830;2023-08-20T06:35:58;23.00;99.90
4207;DHT22;2117;47.972;7.830;2023-08-20T06:38:23;23.10;99.90
4207;DHT22;2117;47.972;7.830;2023-08-20T06:40:50;23.10;99.90
4207;DHT22;2117;47.972;7.830;2023-08-20T06:43:15;23.20;99.90
4207;DHT22;2117;47.972;7.830;2023-08-20T06:45:41;23.30;99.90
4207;DHT22;2117;47.972;7.830;2023-08-20T06:48:06;23.30;99.90
4207;DHT22;2117;47.972;7.830;2023-08-20T06:50:32;23.30;99.90
4207;DHT22;2117;47.972;7.830;2023-08-20T06:52:57;23.40;99.90
4207;DHT22;2117;47.972;7.830;2023-08-20T06:55:23;23.40;99.90
4207;DHT22;2117;47.972;7.830;2023-08-20T06:57:48;23.50;99.90
4207;DHT22;2117;47.972;7.830;2023-08-20T07:00:14;23.50;99.90
4207;DHT22;2117;47.972;7.830;2023-08-20T07:02:40;23.70;99.90
4207;DHT22;2117;47.972;7.830;2023-08-20T07:05:06;23.60;99.90
4207;DHT22;2117;47.972;7.830;2023-08-20T07:07:34;23.70;99.90
4207;DHT22;2117;47.972;7.830;2023-08-20T07:10:00;23.80;99.90
4207;DHT22;2117;47.972;7.830;2023-08-20T07:12:25;23.80;99.90
4207;DHT22;2117;47.972;7.830;2023-08-20T07:14:51;23.80;99.90
4207;DHT22;2117;47.972;7.830;2023-08-20T07:17:17;23.90;99.90
4207;DHT22;2117;47.972;7.830;2023-08-20T07:19:42;23.90;99.90
4207;DHT22;2117;47.972;7.830;2023-08-20T07:22:09;24.00;99.90
4207;DHT22;2117;47.972;7.830;2023-08-20T07:24:34;24.00;99.90
4207;DHT22;2117;47.972;7.830;2023-08-20T07:27:01;24.10;99.90
4207;DHT22;2117;47.972;7.830;2023-08-20T07:29:29;24.10;99.90
4207;DHT22;2117;47.972;7.830;2023-08-20T07:31:56;24.10;99.90
4207;DHT22;2117;47.972;7.830;2023-08-20T07:34:21;24.20;99.90
4207;DHT22;2117;47.972;7.830;2023-08-20T07:36:47;24.20;99.90
4207;DHT22;2117;47.972;7.830;2023-08-20T07:39:12;24.20;99.90
4207;DHT22;2117;47.972;7.830;2023-08-20T07:41:40;24.30;99.90
4207;DHT22;2117;47.972;7.830;2023-08-20T07:44:06;24.30;99.90
4207;DHT22;2117;47.972;7.830;2023-08-20T07:46:31;24.40;99.90
4207;DHT22;2117;47.972;7.830;2023-08-20T07:48:57;24.40;99.90
4207;DHT22;2117;47.972;7.830;2023-08-20T07:51:23;24.60;99.90
4207;DHT22;2117;47.972;7.830;2023-08-20T07:53:48;24.70;99.90
4207;DHT22;2117;47.972;7.830;2023-08-20T07:56:14;24.80;99.90
4207;DHT22;2117;47.972;7.830;2023-08-20T07:58:39;24.90;99.90
4207;DHT22;2117;47.972;7.830;2023-08-20T08:01:05;25.00;99.90
4207;DHT22;2117;47.972;7.830;2023-08-20T08:03:30;25.20;99.90
4207;DHT22;2117;47.972;7.830;2023-08-20T08:05:56;25.20;99.90
4207;DHT22;2117;47.972;7.830;2023-08-20T08:08:22;25.30;99.90
4207;DHT22;2117;47.972;7.830;2023-08-20T08:10:48;25.50;99.90
4207;DHT22;2117;47.972;7.830;2023-08-20T08:13:15;25.60;99.90
4207;DHT22;2117;47.972;7.830;2023-08-20T08:15:41;25.60;99.90
4207;DHT22;2117;47.972;7.830;2023-08-20T08:18:07;25.70;99.90
4207;DHT22;2117;47.972;7.830;2023-08-20T08:20:34;25.70;99.90
4207;DHT22;2117;47.972;7.830;2023-08-20T08:23:00;25.70;99.90
4207;DHT22;2117;47.972;7.830;2023-08-20T08:25:26;25.70;99.90
4207;DHT22;2117;47.972;7.830;2023-08-20T08:27:51;25.70;99.90
4207;DHT22;2117;47.972;7.830;2023-08-20T08:30:17;25.90;99.90
4207;DHT22;2117;47.972;7.830;2023-08-20T08:32:43;25.90;99.90
4207;DHT22;2117;47.972;7.830;2023-08-20T08:35:09;25.90;99.90
4207;DHT22;2117;47.972;7.830;2023-08-20T08:37:34;25.90;99.90
4207;DHT22;2117;47.972;7.830;2023-08-20T08:40:00;25.90;99.90
4207;DHT22;2117;47.972;7.830;2023-08-20T08:42:25;25.90;99.90
4207;DHT22;2117;47.972;7.830;2023-08-20T08:44:51;25.90;99.90
4207;DHT22;2117;47.972;7.830;2023-08-20T08:47:18;25.90;99.90
4207;DHT22;2117;47.972;7.830;2023-08-20T08:49:45;25.90;99.90
4207;DHT22;2117;47.972;7.830;2023-08-20T08:52:12;26.00;99.90
4207;DHT22;2117;47.972;7.830;2023-08-20T08:54:38;26.10;99.90
4207;DHT22;2117;47.972;7.830;2023-08-20T08:57:04;26.30;99.90
4207;DHT22;2117;47.972;7.830;2023-08-20T08:59:30;26.30;99.90
4207;DHT22;2117;47.972;7.830;2023-08-20T09:01:56;26.50;99.90
4207;DHT22;2117;47.972;7.830;2023-08-20T09:04:23;26.50;99.90
4207;DHT22;2117;47.972;7.830;2023-08-20T09:06:50;26.60;99.90
4207;DHT22;2117;47.972;7.830;2023-08-20T09:09:17;26.70;99.90
4207;DHT22;2117;47.972;7.830;2023-08-20T09:11:43;26.80;99.90
4207;DHT22;2117;47.972;7.830;2023-08-20T09:14:21;26.90;99.90
4207;DHT22;2117;47.972;7.830;2023-08-20T09:16:54;27.00;99.90
4207;DHT22;2117;47.972;7.830;2023-08-20T09:21:46;27.20;99.90
4207;DHT22;2117;47.972;7.830;2023-08-20T09:24:14;27.40;99.90
4207;DHT22;2117;47.972;7.830;2023-08-20T09:26:39;27.50;99.90
4207;DHT22;2117;47.972;7.830;2023-08-20T09:29:05;27.70;99.90
4207;DHT22;2117;47.972;7.830;2023-08-20T09:31:38;27.80;99.90
4207;DHT22;2117;47.972;7.830;2023-08-20T09:34:04;27.90;99.90
4207;DHT22;2117;47.972;7.830;2023-08-20T09:36:34;28.10;99.90
4207;DHT22;2117;47.972;7.830;2023-08-20T09:39:01;28.30;99.90
4207;DHT22;2117;47.972;7.830;2023-08-20T09:41:28;28.30;99.90
4207;DHT22;2117;47.972;7.830;2023-08-20T09:43:57;28.40;99.90
4207;DHT22;2117;47.972;7.830;2023-08-20T09:46:25;28.50;99.90
4207;DHT22;2117;47.972;7.830;2023-08-20T09:48:51;28.50;99.90
4207;DHT22;2117;47.972;7.830;2023-08-20T09:51:26;28.50;99.90
4207;DHT22;2117;47.972;7.830;2023-08-20T09:54:18;28.50;99.90
4207;DHT22;2117;47.972;7.830;2023-08-20T09:56:46;28.70;99.90
4207;DHT22;2117;47.972;7.830;2023-08-20T09:59:17;28.90;99.90
4207;DHT22;2117;47.972;7.830;2023-08-20T10:01:43;29.00;99.90
4207;DHT22;2117;47.972;7.830;2023-08-20T10:04:10;29.00;99.90
4207;DHT22;2117;47.972;7.830;2023-08-20T10:06:35;29.20;99.90
4207;DHT22;2117;47.972;7.830;2023-08-20T10:09:02;29.30;99.90
4207;DHT22;2117;47.972;7.830;2023-08-20T10:11:28;29.50;99.90
4207;DHT22;2117;47.972;7.830;2023-08-20T10:13:54;29.60;99.90
4207;DHT22;2117;47.972;7.830;2023-08-20T10:16:20;29.70;99.90
4207;DHT22;2117;47.972;7.830;2023-08-20T10:18:47;29.80;99.90
4207;DHT22;2117;47.972;7.830;2023-08-20T10:21:13;29.90;99.90
4207;DHT22;2117;47.972;7.830;2023-08-20T10:23:42;30.00;99.90
4207;DHT22;2117;47.972;7.830;2023-08-20T10:26:14;30.10;99.90
4207;DHT22;2117;47.972;7.830;2023-08-20T10:28:40;30.30;99.90
4207;DHT22;2117;47.972;7.830;2023-08-20T10:31:10;30.50;99.90
4207;DHT22;2117;47.972;7.830;2023-08-20T10:33:40;30.70;99.90
4207;DHT22;2117;47.972;7.830;2023-08-20T10:36:18;31.20;99.90
4207;DHT22;2117;47.972;7.830;2023-08-20T10:38:48;31.20;99.90
4207;DHT22;2117;47.972;7.830;2023-08-20T10:41:15;31.50;99.90
4207;DHT22;2117;47.972;7.830;2023-08-20T10:43:48;31.60;99.90
4207;DHT22;2117;47.972;7.830;2023-08-20T10:46:16;31.90;99.90
4207;DHT22;2117;47.972;7.830;2023-08-20T10:48:46;32.30;99.90
4207;DHT22;2117;47.972;7.830;2023-08-20T10:51:24;32.50;99.90
4207;DHT22;2117;47.972;7.830;2023-08-20T10:54:03;32.80;99.90
4207;DHT22;2117;47.972;7.830;2023-08-20T10:56:41;33.10;99.90
4207;DHT22;2117;47.972;7.830;2023-08-20T10:59:17;33.40;99.90
4207;DHT22;2117;47.972;7.830;2023-08-20T11:01:47;33.70;99.90
4207;DHT22;2117;47.972;7.830;2023-08-20T11:04:15;34.00;99.90
4207;DHT22;2117;47.972;7.830;2023-08-20T11:06:41;34.00;99.90
4207;DHT22;2117;47.972;7.830;2023-08-20T11:09:07;33.40;99.90
4207;DHT22;2117;47.972;7.830;2023-08-20T11:11:32;33.00;99.90
4207;DHT22;2117;47.972;7.830;2023-08-20T11:14:12;33.20;99.90
4207;DHT22;2117;47.972;7.830;2023-08-20T11:16:40;34.00;99.90
4207;DHT22;2117;47.972;7.830;2023-08-20T11:19:05;34.70;99.90
4207;DHT22;2117;47.972;7.830;2023-08-20T11:21:34;35.10;99.90
4207;DHT22;2117;47.972;7.830;2023-08-20T11:24:03;35.10;99.90
4207;DHT22;2117;47.972;7.830;2023-08-20T11:26:29;35.10;99.90
4207;DHT22;2117;47.972;7.830;2023-08-20T11:28:55;36.00;99.90
4207;DHT22;2117;47.972;7.830;2023-08-20T11:31:21;36.50;99.90
4207;DHT22;2117;47.972;7.830;2023-08-20T11:33:46;35.60;99.90
4207;DHT22;2117;47.972;7.830;2023-08-20T11:36:15;35.60;99.90
4207;DHT22;2117;47.972;7.830;2023-08-20T11:38:42;35.90;99.90
4207;DHT22;2117;47.972;7.830;2023-08-20T11:41:14;36.70;99.60
4207;DHT22;2117;47.972;7.830;2023-08-20T11:43:41;37.00;97.70
4207;DHT22;2117;47.972;7.830;2023-08-20T11:46:13;36.90;98.00
4207;DHT22;2117;47.972;7.830;2023-08-20T11:48:38;36.40;99.50
4207;DHT22;2117;47.972;7.830;2023-08-20T11:51:04;36.10;99.40
4207;DHT22;2117;47.972;7.830;2023-08-20T11:53:30;37.30;99.40
4207;DHT22;2117;47.972;7.830;2023-08-20T11:55:55;38.10;97.70
4207;DHT22;2117;47.972;7.830;2023-08-20T11:58:22;36.80;97.80
4207;DHT22;2117;47.972;7.830;2023-08-20T12:00:49;36.90;98.30
4207;DHT22;2117;47.972;7.830;2023-08-20T12:03:18;36.80;97.50
4207;DHT22;2117;47.972;7.830;2023-08-20T12:05:44;37.40;97.10
4207;DHT22;2117;47.972;7.830;2023-08-20T12:08:15;38.00;96.90
4207;DHT22;2117;47.972;7.830;2023-08-20T12:10:42;38.90;97.30
4207;DHT22;2117;47.972;7.830;2023-08-20T12:13:08;39.60;96.60
4207;DHT22;2117;47.972;7.830;2023-08-20T12:15:33;40.30;95.60
4207;DHT22;2117;47.972;7.830;2023-08-20T12:18:01;40.50;94.20
4207;DHT22;2117;47.972;7.830;2023-08-20T12:20:30;40.00;93.10
4207;DHT22;2117;47.972;7.830;2023-08-20T12:23:03;40.10;93.50
4207;DHT22;2117;47.972;7.830;2023-08-20T12:25:31;40.50;93.30
4207;DHT22;2117;47.972;7.830;2023-08-20T12:27:57;41.00;93.20
4207;DHT22;2117;47.972;7.830;2023-08-20T12:30:23;41.40;90.70
4207;DHT22;2117;47.972;7.830;2023-08-20T12:32:49;41.40;91.10
4207;DHT22;2117;47.972;7.830;2023-08-20T12:37:40;41.80;91.60
4207;DHT22;2117;47.972;7.830;2023-08-20T12:40:06;41.90;91.20
4207;DHT22;2117;47.972;7.830;2023-08-20T12:42:37;42.00;90.40
4207;DHT22;2117;47.972;7.830;2023-08-20T12:45:07;42.10;91.20
4207;DHT22;2117;47.972;7.830;2023-08-20T12:47:34;42.50;90.10
4207;DHT22;2117;47.972;7.830;2023-08-20T12:50:00;42.50;90.40
4207;DHT22;2117;47.972;7.830;2023-08-20T12:52:25;42.30;89.10
4207;DHT22;2117;47.972;7.830;2023-08-20T12:54:51;41.90;89.00
4207;DHT22;2117;47.972;7.830;2023-08-20T12:57:17;42.20;90.50
4207;DHT22;2117;47.972;7.830;2023-08-20T12:59:42;42.50;89.40
4207;DHT22;2117;47.972;7.830;2023-08-20T13:02:08;42.20;88.70
4207;DHT22;2117;47.972;7.830;2023-08-20T13:04:34;42.50;87.80
4207;DHT22;2117;47.972;7.830;2023-08-20T13:07:00;42.20;88.10
4207;DHT22;2117;47.972;7.830;2023-08-20T13:09:27;42.80;89.80
4207;DHT22;2117;47.972;7.830;2023-08-20T13:11:53;42.90;85.90
4207;DHT22;2117;47.972;7.830;2023-08-20T13:14:21;42.80;86.10
4207;DHT22;2117;47.972;7.830;2023-08-20T13:16:46;42.40;85.40
4207;DHT22;2117;47.972;7.830;2023-08-20T13:19:12;40.90;87.20
4207;DHT22;2117;47.972;7.830;2023-08-20T13:21:38;41.70;83.40
4207;DHT22;2117;47.972;7.830;2023-08-20T13:24:04;42.10;85.90
4207;DHT22;2117;47.972;7.830;2023-08-20T13:26:30;42.60;85.40
4207;DHT22;2117;47.972;7.830;2023-08-20T13:28:55;42.90;83.60
4207;DHT22;2117;47.972;7.830;2023-08-20T13:31:21;42.90;82.60
4207;DHT22;2117;47.972;7.830;2023-08-20T13:33:46;42.70;84.90
4207;DHT22;2117;47.972;7.830;2023-08-20T13:36:12;42.60;84.70
4207;DHT22;2117;47.972;7.830;2023-08-20T13:38:37;42.90;82.90
4207;DHT22;2117;47.972;7.830;2023-08-20T13:41:03;43.20;84.10
4207;DHT22;2117;47.972;7.830;2023-08-20T13:43:28;43.60;82.90
4207;DHT22;2117;47.972;7.830;2023-08-20T13:45:54;43.50;82.10
4207;DHT22;2117;47.972;7.830;2023-08-20T13:48:19;42.10;82.10
4207;DHT22;2117;47.972;7.830;2023-08-20T13:50:45;41.70;82.90
4207;DHT22;2117;47.972;7.830;2023-08-20T13:53:11;41.00;85.40
4207;DHT22;2117;47.972;7.830;2023-08-20T13:55:36;40.00;87.70
4207;DHT22;2117;47.972;7.830;2023-08-20T13:58:02;39.50;88.60
4207;DHT22;2117;47.972;7.830;2023-08-20T14:00:27;39.20;90.50
4207;DHT22;2117;47.972;7.830;2023-08-20T14:02:53;39.00;90.50
4207;DHT22;2117;47.972;7.830;2023-08-20T14:05:18;38.60;90.20
4207;DHT22;2117;47.972;7.830;2023-08-20T14:07:45;38.50;90.40
4207;DHT22;2117;47.972;7.830;2023-08-20T14:10:10;38.60;89.50
4207;DHT22;2117;47.972;7.830;2023-08-20T14:12:36;38.40;89.30
4207;DHT22;2117;47.972;7.830;2023-08-20T14:15:02;38.90;90.10
4207;DHT22;2117;47.972;7.830;2023-08-20T14:17:27;39.60;88.90
4207;DHT22;2117;47.972;7.830;2023-08-20T14:19:53;39.90;88.60
4207;DHT22;2117;47.972;7.830;2023-08-20T14:22:18;40.60;87.50
4207;DHT22;2117;47.972;7.830;2023-08-20T14:24:44;41.00;85.90
4207;DHT22;2117;47.972;7.830;2023-08-20T14:27:10;41.90;86.30
4207;DHT22;2117;47.972;7.830;2023-08-20T14:29:36;41.90;87.10
4207;DHT22;2117;47.972;7.830;2023-08-20T14:32:01;42.40;87.80
4207;DHT22;2117;47.972;7.830;2023-08-20T14:34:28;42.70;86.50
4207;DHT22;2117;47.972;7.830;2023-08-20T14:36:53;43.10;83.60
4207;DHT22;2117;47.972;7.830;2023-08-20T14:39:19;42.60;82.30
4207;DHT22;2117;47.972;7.830;2023-08-20T14:41:44;41.80;86.40
4207;DHT22;2117;47.972;7.830;2023-08-20T14:44:10;41.90;84.80
4207;DHT22;2117;47.972;7.830;2023-08-20T14:46:35;42.20;84.20
4207;DHT22;2117;47.972;7.830;2023-08-20T14:49:01;42.10;82.80
4207;DHT22;2117;47.972;7.830;2023-08-20T14:51:26;42.60;82.30
4207;DHT22;2117;47.972;7.830;2023-08-20T14:53:52;42.60;85.20
4207;DHT22;2117;47.972;7.830;2023-08-20T14:56:17;42.10;83.40
4207;DHT22;2117;47.972;7.830;2023-08-20T14:58:43;42.10;84.00
4207;DHT22;2117;47.972;7.830;2023-08-20T15:01:08;42.30;85.70
4207;DHT22;2117;47.972;7.830;2023-08-20T15:03:34;42.30;85.20
4207;DHT22;2117;47.972;7.830;2023-08-20T15:05:59;42.50;84.80
4207;DHT22;2117;47.972;7.830;2023-08-20T15:08:25;42.60;85.10
4207;DHT22;2117;47.972;7.830;2023-08-20T15:10:58;42.70;83.90
4207;DHT22;2117;47.972;7.830;2023-08-20T15:13:31;42.60;83.90
4207;DHT22;2117;47.972;7.830;2023-08-20T15:15:57;42.20;83.90
4207;DHT22;2117;47.972;7.830;2023-08-20T15:18:23;42.40;83.20
4207;DHT22;2117;47.972;7.830;2023-08-20T15:20:56;42.60;81.90
4207;DHT22;2117;47.972;7.830;2023-08-20T15:23:23;42.40;81.70
4207;DHT22;2117;47.972;7.830;2023-08-20T15:25:51;42.40;83.40
4207;DHT22;2117;47.972;7.830;2023-08-20T15:28:18;42.30;83.40
4207;DHT22;2117;47.972;7.830;2023-08-20T15:30:44;42.30;83.60
4207;DHT22;2117;47.972;7.830;2023-08-20T15:33:09;42.40;83.10
4207;DHT22;2117;47.972;7.830;2023-08-20T15:35:35;42.40;81.60
4207;DHT22;2117;47.972;7.830;2023-08-20T15:38:00;42.40;82.10
4207;DHT22;2117;47.972;7.830;2023-08-20T15:40:26;42.50;82.00
4207;DHT22;2117;47.972;7.830;2023-08-20T15:42:51;42.40;80.70
4207;DHT22;2117;47.972;7.830;2023-08-20T15:45:17;41.60;82.20
4207;DHT22;2117;47.972;7.830;2023-08-20T15:47:42;41.40;84.10
4207;DHT22;2117;47.972;7.830;2023-08-20T15:50:08;40.90;83.30
4207;DHT22;2117;47.972;7.830;2023-08-20T15:52:34;40.10;84.10
4207;DHT22;2117;47.972;7.830;2023-08-20T15:54:59;39.40;86.30
4207;DHT22;2117;47.972;7.830;2023-08-20T15:57:25;38.50;86.90
4207;DHT22;2117;47.972;7.830;2023-08-20T15:59:50;38.30;87.60
4207;DHT22;2117;47.972;7.830;2023-08-20T16:02:16;37.60;89.30
4207;DHT22;2117;47.972;7.830;2023-08-20T16:04:42;37.00;90.60
4207;DHT22;2117;47.972;7.830;2023-08-20T16:07:07;36.50;91.00
4207;DHT22;2117;47.972;7.830;2023-08-20T16:09:34;36.30;91.80
4207;DHT22;2117;47.972;7.830;2023-08-20T16:12:00;36.10;92.80
4207;DHT22;2117;47.972;7.830;2023-08-20T16:14:26;35.70;92.60
4207;DHT22;2117;47.972;7.830;2023-08-20T16:16:51;35.40;93.00
4207;DHT22;2117;47.972;7.830;2023-08-20T16:19:17;35.10;93.20
4207;DHT22;2117;47.972;7.830;2023-08-20T16:21:43;34.90;93.80
4207;DHT22;2117;47.972;7.830;2023-08-20T16:24:08;34.70;94.10
4207;DHT22;2117;47.972;7.830;2023-08-20T16:26:37;34.40;94.40
4207;DHT22;2117;47.972;7.830;2023-08-20T16:29:03;34.20;95.00
4207;DHT22;2117;47.972;7.830;2023-08-20T16:31:29;34.10;95.30
4207;DHT22;2117;47.972;7.830;2023-08-20T16:33:54;34.00;95.90
4207;DHT22;2117;47.972;7.830;2023-08-20T16:36:20;33.90;95.40
4207;DHT22;2117;47.972;7.830;2023-08-20T16:38:45;33.70;95.40
4207;DHT22;2117;47.972;7.830;2023-08-20T16:41:11;33.60;95.90
4207;DHT22;2117;47.972;7.830;2023-08-20T16:43:37;33.40;96.40
4207;DHT22;2117;47.972;7.830;2023-08-20T16:46:03;33.30;96.40
4207;DHT22;2117;47.972;7.830;2023-08-20T16:48:28;33.30;97.10
4207;DHT22;2117;47.972;7.830;2023-08-20T16:51:00;33.10;96.70
4207;DHT22;2117;47.972;7.830;2023-08-20T16:53:27;33.00;97.20
4207;DHT22;2117;47.972;7.830;2023-08-20T16:55:54;33.00;97.40
4207;DHT22;2117;47.972;7.830;2023-08-20T16:58:21;32.90;98.10
4207;DHT22;2117;47.972;7.830;2023-08-20T17:00:48;32.80;97.90
4207;DHT22;2117;47.972;7.830;2023-08-20T17:03:15;32.70;97.40
4207;DHT22;2117;47.972;7.830;2023-08-20T17:05:41;32.70;97.60